Time;durP1;ratioP1;P1;durP2;ratioP2;P2;SDS_P1;SDS_P2;PMS_P1;PMS_P2;Temp;Humidity;BMP_temperature;BMP_pressure;BME280_temperature;BME280_humidity;BME280_pressure;Samples;Min_cycle;Max_cycle;Signal;HPM_P1;HPM_P2
2023/04/12 00:01:05;;;;;;;7.70;1.85;;;7.60;99.90;;;;;;5055056;28;20797;-72
2023/04/12 00:03:33;;;;;;;9.45;2.03;;;7.60;99.90;;;;;;5072645;28;20582;-82
2023/04/12 00:06:02;;;;;;;10.40;2.35;;;7.60;99.90;;;;;;5072536;28;20062;-74
2023/04/12 00:08:32;;;;;;;9.07;2.00;;;7.60;99.90;;;;;;5072588;28;20392;-72
2023/04/12 00:10:59;;;;;;;12.80;2.10;;;7.60;99.90;;;;;;5072908;28;20045;-74
2023/04/12 00:13:25;;;;;;;10.57;2.13;;;7.60;99.90;;;;;;5072757;28;20053;-72
2023/04/12 00:15:50;;;;;;;8.80;1.83;;;7.60;99.90;;;;;;5072468;28;20055;-76
2023/04/12 00:18:16;;;;;;;9.32;2.85;;;7.70;99.90;;;;;;5072684;28;20391;-76
2023/04/12 00:20:42;;;;;;;12.15;2.17;;;7.70;99.90;;;;;;5072626;28;20418;-72
2023/04/12 00:23:08;;;;;;;10.95;2.13;;;7.70;99.90;;;;;;5072265;28;20048;-73
2023/04/12 00:25:37;;;;;;;11.02;2.08;;;8.20;99.90;;;;;;5072437;28;20430;-72
2023/04/12 00:28:02;;;;;;;9.07;1.98;;;7.80;99.90;;;;;;5072213;28;20055;-72
2023/04/12 00:30:28;;;;;;;8.45;1.88;;;7.80;99.90;;;;;;5072082;28;20045;-72
2023/04/12 00:32:54;;;;;;;11.20;2.13;;;7.80;99.90;;;;;;5072143;28;20040;-71
2023/04/12 00:35:19;;;;;;;10.25;1.75;;;7.90;99.90;;;;;;5072186;28;20047;-71
2023/04/12 00:37:45;;;;;;;9.60;1.83;;;7.80;99.90;;;;;;5072227;28;20036;-72
2023/04/12 00:40:11;;;;;;;7.63;1.88;;;7.80;99.90;;;;;;5072063;28;20137;-71
2023/04/12 00:42:37;;;;;;;11.50;2.35;;;7.90;99.90;;;;;;5071959;28;20510;-75
2023/04/12 00:45:04;;;;;;;8.60;2.10;;;8.30;99.90;;;;;;5072044;28;20067;-73
2023/04/12 00:47:31;;;;;;;11.95;2.38;;;7.90;99.90;;;;;;5071669;28;20622;-72
2023/04/12 00:49:58;;;;;;;8.57;1.95;;;7.90;99.90;;;;;;5072006;28;20052;-73
2023/04/12 00:52:23;;;;;;;15.30;2.30;;;7.90;99.90;;;;;;5053550;28;20045;-72
2023/04/12 00:54:50;;;;;;;10.45;2.10;;;8.00;99.90;;;;;;5071913;28;20166;-72
2023/04/12 00:57:16;;;;;;;14.23;2.60;;;8.10;99.90;;;;;;5053939;28;20485;-72
2023/04/12 00:59:42;;;;;;;12.65;2.33;;;8.00;99.90;;;;;;5072006;28;20051;-72
2023/04/12 01:02:08;;;;;;;12.48;2.00;;;8.00;99.90;;;;;;5071951;28;20877;-72
2023/04/12 01:04:36;;;;;;;13.43;2.95;;;8.00;99.90;;;;;;5071700;28;20073;-72
2023/04/12 01:07:14;;;;;;;12.75;2.75;;;8.00;99.90;;;;;;5053333;28;20056;-71
2023/04/12 01:09:58;;;;;;;15.50;2.58;;;8.00;99.90;;;;;;5071667;28;20084;-72
2023/04/12 01:12:57;;;;;;;10.63;2.20;;;8.10;99.90;;;;;;5071545;28;20048;-72
2023/04/12 01:15:25;;;;;;;10.23;2.00;;;8.10;99.90;;;;;;5052896;28;20084;-72
2023/04/12 01:18:15;;;;;;;10.73;2.58;;;8.10;99.90;;;;;;5070784;28;20044;-72
2023/04/12 01:20:52;;;;;;;12.02;3.08;;;8.10;99.90;;;;;;5070728;28;20095;-71
2023/04/12 01:23:23;;;;;;;16.00;2.83;;;8.10;99.90;;;;;;5071070;28;20044;-71
2023/04/12 01:26:14;;;;;;;8.90;2.00;;;8.10;99.90;;;;;;5071212;28;20514;-72
2023/04/12 01:28:44;;;;;;;9.82;2.58;;;8.10;99.90;;;;;;5071042;28;20049;-72
2023/04/12 01:31:11;;;;;;;11.48;2.38;;;8.10;99.90;;;;;;5053525;28;20044;-72
2023/04/12 01:33:39;;;;;;;10.93;2.50;;;8.10;99.90;;;;;;5071206;28;20491;-72
2023/04/12 01:36:33;;;;;;;14.00;2.83;;;8.10;99.90;;;;;;5070805;28;20131;-71
2023/04/12 01:38:59;;;;;;;11.90;3.05;;;8.10;99.90;;;;;;5067833;28;20068;-72
2023/04/12 01:41:25;;;;;;;12.75;2.45;;;8.10;99.90;;;;;;5070117;28;20067;-71
2023/04/12 01:43:51;;;;;;;11.23;2.35;;;8.10;99.90;;;;;;5070744;28;20479;-74
2023/04/12 01:46:21;;;;;;;12.68;2.70;;;8.10;99.90;;;;;;5071038;28;20064;-72
2023/04/12 01:48:52;;;;;;;10.52;2.72;;;8.10;99.90;;;;;;5071017;28;20412;-72
2023/04/12 01:51:39;;;;;;;8.88;2.25;;;8.20;99.90;;;;;;5070898;28;20055;-72
2023/04/12 01:54:29;;;;;;;8.80;2.40;;;8.10;99.90;;;;;;5070246;28;20081;-75
2023/04/12 01:56:58;;;;;;;10.68;2.10;;;8.40;99.90;;;;;;5070783;28;20052;-72
2023/04/12 01:59:54;;;;;;;10.45;2.60;;;8.10;99.90;;;;;;5070746;28;20036;-72
2023/04/12 02:02:20;;;;;;;6.70;1.98;;;8.20;99.90;;;;;;4987798;28;20190;-72
2023/04/12 02:04:47;;;;;;;12.45;2.67;;;8.50;99.90;;;;;;5004153;28;20129;-75
2023/04/12 02:07:14;;;;;;;10.10;2.88;;;8.10;99.90;;;;;;5008524;28;20050;-73
2023/04/12 02:09:40;;;;;;;11.13;2.58;;;8.10;99.90;;;;;;5008212;28;20042;-72
2023/04/12 02:12:08;;;;;;;10.77;2.58;;;8.20;99.90;;;;;;4990413;28;20222;-72
2023/04/12 02:14:33;;;;;;;11.10;1.77;;;8.10;99.90;;;;;;4972137;28;20061;-73
2023/04/12 02:17:01;;;;;;;6.93;1.65;;;8.10;99.90;;;;;;4988758;28;20050;-72
2023/04/12 02:19:26;;;;;;;10.13;1.67;;;8.10;99.90;;;;;;4988573;28;20515;-72
2023/04/12 02:21:52;;;;;;;8.85;2.13;;;8.20;99.90;;;;;;4988556;28;20043;-73
2023/04/12 02:24:18;;;;;;;8.27;1.75;;;8.20;99.90;;;;;;4988388;28;20046;-72
2023/04/12 02:26:44;;;;;;;9.43;1.52;;;8.40;99.90;;;;;;4996294;28;20058;-71
2023/04/12 02:29:11;;;;;;;12.07;1.83;;;8.20;99.90;;;;;;4988021;28;20061;-72
2023/04/12 02:31:37;;;;;;;8.82;2.00;;;8.20;99.90;;;;;;4972040;28;20058;-71
2023/04/12 02:34:03;;;;;;;10.35;2.10;;;8.30;99.90;;;;;;4987792;28;20051;-72
2023/04/12 02:36:29;;;;;;;5.07;1.00;;;8.50;99.90;;;;;;4988169;28;20081;-71
2023/04/12 02:38:55;;;;;;;6.82;1.65;;;8.20;99.90;;;;;;5035946;28;20090;-71
2023/04/12 02:41:22;;;;;;;9.90;1.80;;;8.30;99.90;;;;;;5069303;28;20044;-72
2023/04/12 02:43:47;;;;;;;6.65;1.50;;;8.20;99.90;;;;;;5069504;28;20056;-72
2023/04/12 02:46:18;;;;;;;9.60;1.65;;;8.20;99.90;;;;;;5051662;28;20037;-71
2023/04/12 02:48:44;;;;;;;6.45;2.10;;;8.20;99.90;;;;;;5051800;28;20048;-72
2023/04/12 02:51:10;;;;;;;7.45;1.70;;;8.20;99.90;;;;;;5069762;28;20129;-72
2023/04/12 02:53:36;;;;;;;9.63;1.48;;;8.20;99.90;;;;;;5068935;28;20052;-71
2023/04/12 02:56:04;;;;;;;6.43;1.55;;;8.20;99.90;;;;;;5068957;28;20036;-71
2023/04/12 02:58:29;;;;;;;6.90;1.60;;;8.20;99.90;;;;;;5052113;28;20101;-71
2023/04/12 03:00:58;;;;;;;9.23;1.70;;;8.20;99.90;;;;;;5069800;28;20128;-71
2023/04/12 03:03:25;;;;;;;7.78;1.80;;;8.60;99.90;;;;;;5068807;28;20522;-73
2023/04/12 03:05:51;;;;;;;4.63;1.70;;;8.50;99.90;;;;;;5069886;28;20052;-71
2023/04/12 03:08:18;;;;;;;6.75;1.48;;;8.10;99.90;;;;;;5060299;28;20143;-72
2023/04/12 03:10:43;;;;;;;7.82;1.50;;;8.40;99.90;;;;;;5049519;28;20045;-73
2023/04/12 03:13:12;;;;;;;6.25;1.40;;;8.20;99.90;;;;;;5031098;28;20073;-72
2023/04/12 03:15:38;;;;;;;8.88;1.70;;;9.00;99.90;;;;;;5054720;28;20123;-71
2023/04/12 03:18:03;;;;;;;8.82;1.70;;;8.20;99.90;;;;;;5031786;28;20136;-72
2023/04/12 03:20:29;;;;;;;6.72;1.58;;;8.10;99.90;;;;;;5049631;28;20056;-74
2023/04/12 03:22:55;;;;;;;11.00;1.90;;;8.10;99.90;;;;;;5049473;28;20052;-71
2023/04/12 03:25:21;;;;;;;8.80;1.70;;;8.10;99.90;;;;;;5043597;28;20132;-71
2023/04/12 03:27:46;;;;;;;4.20;1.27;;;8.10;99.90;;;;;;5048170;28;20037;-71
2023/04/12 03:30:13;;;;;;;5.80;1.17;;;8.40;99.90;;;;;;5031707;28;20111;-72
2023/04/12 03:32:40;;;;;;;8.85;1.98;;;8.20;99.90;;;;;;5049326;28;20095;-72
2023/04/12 03:35:07;;;;;;;7.28;1.45;;;8.20;99.90;;;;;;5049512;28;20076;-72
2023/04/12 03:37:34;;;;;;;4.75;1.40;;;8.10;99.90;;;;;;5049312;28;20123;-71
2023/04/12 03:40:00;;;;;;;8.30;2.00;;;8.40;99.90;;;;;;5049250;28;20064;-72
2023/04/12 03:42:27;;;;;;;7.60;1.85;;;8.10;99.90;;;;;;5030920;28;20041;-71
2023/04/12 03:44:52;;;;;;;6.78;1.60;;;8.10;99.90;;;;;;5030761;28;20484;-71
2023/04/12 03:47:19;;;;;;;5.93;1.40;;;8.10;99.90;;;;;;5049597;28;20139;-72
2023/04/12 03:49:46;;;;;;;8.60;1.48;;;8.20;99.90;;;;;;5031044;28;20080;-71
2023/04/12 03:52:12;;;;;;;5.32;1.40;;;8.10;99.90;;;;;;5049064;28;20549;-71
2023/04/12 03:54:37;;;;;;;6.85;1.20;;;8.10;99.90;;;;;;5049241;28;20076;-71
2023/04/12 03:57:03;;;;;;;11.63;1.80;;;8.10;99.90;;;;;;5048960;28;20098;-71
2023/04/12 03:59:29;;;;;;;11.63;1.60;;;8.10;99.90;;;;;;5048896;28;20064;-72
2023/04/12 04:01:56;;;;;;;5.97;1.38;;;8.10;99.90;;;;;;5049331;28;20052;-76
2023/04/12 04:04:22;;;;;;;6.72;1.30;;;8.10;99.90;;;;;;5030445;28;20045;-72
2023/04/12 04:06:48;;;;;;;7.63;1.42;;;8.40;99.90;;;;;;5063407;28;20506;-79
2023/04/12 04:09:14;;;;;;;8.48;1.70;;;8.20;99.90;;;;;;5055424;28;20048;-74
2023/04/12 04:11:40;;;;;;;9.27;1.75;;;8.00;99.90;;;;;;5054673;28;20052;-80
2023/04/12 04:14:06;;;;;;;8.85;1.60;;;8.00;99.90;;;;;;5073172;28;20048;-80
2023/04/12 04:16:32;;;;;;;8.50;1.80;;;8.20;99.90;;;;;;5056003;28;20087;-75
2023/04/12 04:18:58;;;;;;;11.63;2.35;;;8.00;99.90;;;;;;5056015;28;20622;-73
2023/04/12 04:21:23;;;;;;;8.15;2.00;;;8.00;99.90;;;;;;5056135;28;20052;-75
2023/04/12 04:23:50;;;;;;;12.75;2.22;;;8.00;99.90;;;;;;5055639;28;20048;-72
2023/04/12 04:26:16;;;;;;;11.15;2.53;;;8.00;99.90;;;;;;5072970;28;20487;-78
2023/04/12 04:28:49;;;;;;;7.25;2.00;;;8.00;99.90;;;;;;5067276;28;20082;-73
2023/04/12 04:31:16;;;;;;;11.10;2.25;;;8.00;99.90;;;;;;5072640;28;20049;-72
2023/04/12 04:33:41;;;;;;;13.85;2.40;;;7.90;99.90;;;;;;5072796;28;20051;-78
2023/04/12 04:36:08;;;;;;;6.95;2.25;;;7.90;99.90;;;;;;5073073;28;20123;-72
2023/04/12 04:38:34;;;;;;;12.88;2.83;;;7.90;99.90;;;;;;5072450;28;20064;-72
2023/04/12 04:41:01;;;;;;;9.25;2.58;;;7.90;99.90;;;;;;5072252;28;20048;-74
2023/04/12 04:43:29;;;;;;;7.28;2.25;;;8.20;99.90;;;;;;5071951;28;20045;-77
2023/04/12 04:45:55;;;;;;;9.88;2.60;;;7.90;99.90;;;;;;5053991;28;20093;-70
2023/04/12 04:48:22;;;;;;;9.32;2.90;;;7.80;99.90;;;;;;5070480;28;20090;-71
2023/04/12 04:50:47;;;;;;;8.80;2.75;;;7.80;99.90;;;;;;5072439;28;20111;-71
2023/04/12 04:53:15;;;;;;;9.75;3.20;;;8.20;99.90;;;;;;5051945;28;20523;-70
2023/04/12 04:55:40;;;;;;;11.35;2.47;;;7.80;99.90;;;;;;5072015;28;20048;-70
2023/04/12 04:58:06;;;;;;;7.53;2.60;;;7.90;99.90;;;;;;5071935;28;20141;-70
2023/04/12 05:00:34;;;;;;;10.30;2.80;;;8.10;99.90;;;;;;5071566;28;20044;-73
2023/04/12 05:02:59;;;;;;;12.60;2.80;;;7.80;99.90;;;;;;5071385;28;20475;-75
2023/04/12 05:05:25;;;;;;;7.32;2.42;;;7.80;99.90;;;;;;5071929;28;20059;-71
2023/04/12 05:07:50;;;;;;;10.50;2.65;;;7.70;99.90;;;;;;5053637;28;20057;-70
2023/04/12 05:10:16;;;;;;;10.23;2.80;;;7.70;99.90;;;;;;5071560;28;20040;-72
2023/04/12 05:12:42;;;;;;;7.35;2.42;;;7.70;99.90;;;;;;5071012;28;20052;-71
2023/04/12 05:15:09;;;;;;;10.38;2.85;;;7.70;99.90;;;;;;5071599;28;20089;-70
2023/04/12 05:17:35;;;;;;;6.85;2.15;;;7.70;99.90;;;;;;5070498;28;20041;-71
2023/04/12 05:20:00;;;;;;;9.45;2.63;;;7.70;99.90;;;;;;5071022;28;20053;-72
2023/04/12 05:22:28;;;;;;;8.35;2.05;;;7.70;99.90;;;;;;5071087;28;20040;-71
2023/04/12 05:24:54;;;;;;;7.15;2.28;;;7.70;99.90;;;;;;5071135;28;20429;-77
2023/04/12 05:27:20;;;;;;;11.65;2.97;;;7.70;99.90;;;;;;5071486;28;20078;-72
2023/04/12 05:29:49;;;;;;;8.23;2.60;;;7.60;99.90;;;;;;5070998;28;20052;-77
2023/04/12 05:32:15;;;;;;;9.13;2.47;;;7.70;99.90;;;;;;5071369;28;20063;-70
2023/04/12 05:34:41;;;;;;;6.43;2.28;;;7.60;99.90;;;;;;5071235;28;20052;-72
2023/04/12 05:37:06;;;;;;;11.95;2.60;;;7.60;99.90;;;;;;5071358;28;20064;-71
2023/04/12 05:39:32;;;;;;;9.25;2.40;;;7.60;99.90;;;;;;5053251;28;20059;-71
2023/04/12 05:41:58;;;;;;;7.97;2.75;;;7.60;99.90;;;;;;5070281;28;20090;-71
2023/04/12 05:44:24;;;;;;;7.93;2.40;;;7.90;99.90;;;;;;5070313;28;20166;-72
2023/04/12 05:46:49;;;;;;;8.98;2.35;;;7.60;99.90;;;;;;5071147;28;20111;-71
2023/04/12 05:49:15;;;;;;;6.80;2.25;;;7.60;99.90;;;;;;5070641;28;20178;-71
2023/04/12 05:51:41;;;;;;;5.60;2.30;;;7.60;99.90;;;;;;5071069;28;20468;-70
2023/04/12 05:54:06;;;;;;;7.00;2.83;;;7.60;99.90;;;;;;5071065;28;20049;-70
2023/04/12 05:56:32;;;;;;;12.00;2.78;;;7.60;99.90;;;;;;5064615;28;20040;-70
2023/04/12 05:59:00;;;;;;;8.20;2.55;;;7.60;99.90;;;;;;5052420;28;20044;-70
2023/04/12 06:01:33;;;;;;;9.13;2.78;;;7.60;99.90;;;;;;5070612;28;20052;-71
2023/04/12 06:04:01;;;;;;;8.60;2.70;;;7.70;99.90;;;;;;5052465;28;20506;-70
2023/04/12 06:06:29;;;;;;;8.90;3.05;;;7.60;99.90;;;;;;5070018;28;20171;-70
2023/04/12 06:08:58;;;;;;;11.85;3.03;;;8.10;99.90;;;;;;5070240;28;20053;-77
2023/04/12 06:11:24;;;;;;;5.70;2.47;;;7.50;99.90;;;;;;5052384;28;20036;-70
2023/04/12 06:13:50;;;;;;;7.25;2.53;;;7.50;99.90;;;;;;5070193;28;20506;-69
2023/04/12 06:16:16;;;;;;;11.63;3.25;;;7.50;99.90;;;;;;5070613;28;20040;-68
2023/04/12 06:18:42;;;;;;;8.27;2.58;;;7.50;99.90;;;;;;5051702;28;20048;-71
2023/04/12 06:21:08;;;;;;;6.30;2.40;;;7.50;99.90;;;;;;5070195;28;20063;-73
2023/04/12 06:23:33;;;;;;;7.25;2.40;;;7.50;99.90;;;;;;5052272;28;20102;-71
2023/04/12 06:25:59;;;;;;;10.77;3.03;;;7.60;99.90;;;;;;5069994;28;20040;-70
2023/04/12 06:28:25;;;;;;;7.07;2.47;;;7.50;99.90;;;;;;5052096;28;20060;-70
2023/04/12 06:30:50;;;;;;;9.18;2.40;;;7.50;99.90;;;;;;5051904;28;20040;-71
2023/04/12 06:33:16;;;;;;;7.95;2.38;;;7.50;99.90;;;;;;5070091;28;20384;-70
2023/04/12 06:35:41;;;;;;;7.10;2.60;;;7.50;99.90;;;;;;5052199;28;20430;-70
2023/04/12 06:38:07;;;;;;;6.47;2.35;;;7.50;99.90;;;;;;5069982;28;20086;-69
2023/04/12 06:40:33;;;;;;;5.75;2.47;;;7.50;99.90;;;;;;5051452;28;20048;-71
2023/04/12 06:42:58;;;;;;;6.70;2.30;;;7.80;99.90;;;;;;5052256;28;20087;-68
2023/04/12 06:45:24;;;;;;;8.25;2.70;;;7.70;99.90;;;;;;5068030;28;20057;-70
2023/04/12 06:47:50;;;;;;;6.90;2.50;;;7.50;99.90;;;;;;5066839;28;20048;-70
2023/04/12 06:50:17;;;;;;;6.68;2.30;;;7.50;99.90;;;;;;5067183;28;20142;-73
2023/04/12 06:52:42;;;;;;;5.25;2.90;;;7.50;99.90;;;;;;5070575;28;20815;-70
2023/04/12 06:55:08;;;;;;;5.90;2.47;;;7.60;99.90;;;;;;5070358;28;20076;-72
2023/04/12 06:57:34;;;;;;;8.70;2.75;;;7.50;99.90;;;;;;5053216;28;20117;-75
2023/04/12 07:00:01;;;;;;;8.73;3.05;;;7.50;99.90;;;;;;5052220;28;20056;-71
2023/04/12 07:02:26;;;;;;;8.25;2.60;;;7.50;99.90;;;;;;5052843;28;20045;-85
2023/04/12 07:04:53;;;;;;;6.97;2.63;;;7.50;99.90;;;;;;5052555;28;20105;-70
2023/04/12 07:07:21;;;;;;;7.28;2.42;;;7.60;99.90;;;;;;5070174;28;20061;-71
2023/04/12 07:09:47;;;;;;;6.35;2.25;;;7.50;99.90;;;;;;5071160;28;20060;-75
2023/04/12 07:12:13;;;;;;;8.07;2.00;;;7.50;99.90;;;;;;5070568;28;20056;-80
2023/04/12 07:14:39;;;;;;;7.57;2.28;;;7.60;99.90;;;;;;5070696;28;20037;-69
2023/04/12 07:17:05;;;;;;;5.97;2.17;;;7.60;99.90;;;;;;5070317;28;20413;-72
2023/04/12 07:19:30;;;;;;;7.28;2.20;;;8.00;99.90;;;;;;5070446;28;20501;-71
2023/04/12 07:21:56;;;;;;;4.55;2.45;;;7.50;99.90;;;;;;5070295;28;20059;-73
2023/04/12 07:24:22;;;;;;;7.13;2.67;;;7.60;99.90;;;;;;5052171;28;20563;-77
2023/04/12 07:26:48;;;;;;;6.95;2.15;;;7.60;99.90;;;;;;5071453;28;20132;-71
2023/04/12 07:29:14;;;;;;;7.80;2.47;;;7.60;99.90;;;;;;5071367;28;20078;-75
2023/04/12 07:31:40;;;;;;;5.35;2.35;;;7.60;99.90;;;;;;5066931;28;20480;-72
2023/04/12 07:34:06;;;;;;;4.82;2.45;;;7.60;99.90;;;;;;5052586;28;20051;-83
2023/04/12 07:36:31;;;;;;;7.05;2.70;;;7.70;99.90;;;;;;5069887;28;20074;-86
2023/04/12 07:38:57;;;;;;;6.00;2.53;;;7.90;99.90;;;;;;5070297;28;20040;-72
2023/04/12 07:41:22;;;;;;;4.68;2.50;;;7.60;99.90;;;;;;5075553;28;20045;-82
2023/04/12 07:43:49;;;;;;;4.93;2.50;;;7.60;99.90;;;;;;5074625;28;20052;-82
2023/04/12 07:46:14;;;;;;;4.70;2.33;;;7.60;99.90;;;;;;5073692;28;20474;-79
2023/04/12 07:48:42;;;;;;;7.72;2.80;;;7.80;99.90;;;;;;5056192;28;20096;-90
2023/04/12 07:51:08;;;;;;;5.18;2.00;;;7.80;99.90;;;;;;5074539;28;20534;-83
2023/04/12 07:53:33;;;;;;;8.32;2.40;;;7.70;99.90;;;;;;5071702;28;20049;-87
2023/04/12 07:55:59;;;;;;;4.43;2.38;;;7.80;99.90;;;;;;5052797;28;20040;-71
2023/04/12 07:58:25;;;;;;;4.00;2.30;;;7.80;99.90;;;;;;5073816;28;20051;-90
2023/04/12 08:00:52;;;;;;;7.95;3.00;;;8.20;99.90;;;;;;5039514;28;20058;-83
2023/04/12 08:03:18;;;;;;;7.90;2.47;;;7.80;99.90;;;;;;5057255;28;20066;-89
2023/04/12 08:05:44;;;;;;;6.90;3.03;;;8.30;99.90;;;;;;5073701;28;20040;-76
2023/04/12 08:08:10;;;;;;;7.18;2.50;;;7.90;99.90;;;;;;5053429;28;20080;-83
2023/04/12 08:10:37;;;;;;;4.90;2.85;;;7.80;99.90;;;;;;5075494;28;20040;-87
2023/04/12 08:13:04;;;;;;;4.65;2.80;;;7.90;99.90;;;;;;5053597;28;20049;-88
2023/04/12 08:15:30;;;;;;;5.85;2.97;;;7.90;99.90;;;;;;5066573;28;20166;-74
2023/04/12 08:17:55;;;;;;;5.22;2.53;;;7.90;99.90;;;;;;5056684;28;20088;-76
2023/04/12 08:20:21;;;;;;;7.57;2.65;;;7.90;99.90;;;;;;5074517;28;20086;-88
2023/04/12 08:22:47;;;;;;;6.82;2.70;;;8.20;99.90;;;;;;5075492;28;20121;-71
2023/04/12 08:25:13;;;;;;;6.10;3.30;;;8.00;99.90;;;;;;5076173;28;20046;-76
2023/04/12 08:27:42;;;;;;;4.90;2.67;;;8.00;99.90;;;;;;5075395;28;20074;-80
2023/04/12 08:30:09;;;;;;;4.53;2.55;;;8.30;99.90;;;;;;5075615;28;20044;-80
2023/04/12 08:32:36;;;;;;;4.07;2.40;;;8.00;99.90;;;;;;5074333;28;20037;-92
2023/04/12 08:35:02;;;;;;;4.75;2.40;;;8.00;99.90;;;;;;5072928;28;20056;-90
2023/04/12 08:37:28;;;;;;;4.55;2.70;;;8.10;99.90;;;;;;5074721;28;20064;-75
2023/04/12 08:39:53;;;;;;;4.53;2.78;;;8.10;99.90;;;;;;5074605;28;20487;-82
2023/04/12 08:42:20;;;;;;;4.90;2.78;;;8.50;99.90;;;;;;5074716;28;20462;-92
2023/04/12 08:44:46;;;;;;;3.25;2.50;;;8.20;99.90;;;;;;5075010;28;20044;-93
2023/04/12 08:47:11;;;;;;;5.50;2.92;;;8.10;99.90;;;;;;5075109;28;20112;-84
2023/04/12 08:49:37;;;;;;;3.72;2.92;;;8.30;99.90;;;;;;5074910;28;20102;-84
2023/04/12 08:52:07;;;;;;;5.10;3.40;;;8.20;99.90;;;;;;5057746;28;20068;-79
2023/04/12 08:54:33;;;;;;;5.75;3.35;;;8.20;99.90;;;;;;5075217;28;20047;-89
2023/04/12 08:57:02;;;;;;;6.80;3.42;;;8.20;99.90;;;;;;5074681;28;20453;-73
2023/04/12 08:59:29;;;;;;;4.57;3.38;;;8.50;99.90;;;;;;5070389;28;20124;-75
2023/04/12 09:01:55;;;;;;;4.20;3.13;;;8.30;99.90;;;;;;5075934;28;20067;-86
2023/04/12 09:04:22;;;;;;;5.55;3.45;;;8.30;99.90;;;;;;5057451;28;20060;-90
2023/04/12 09:06:47;;;;;;;5.32;3.30;;;8.40;99.90;;;;;;5076013;28;20105;-87
2023/04/12 09:09:13;;;;;;;6.22;3.97;;;8.90;99.90;;;;;;5076702;28;20500;-87
2023/04/12 09:11:39;;;;;;;7.65;3.95;;;8.60;99.90;;;;;;5075325;28;20040;-70
2023/04/12 09:14:20;;;;;;;4.95;3.88;;;8.60;99.90;;;;;;5074851;28;20052;-90
2023/04/12 09:16:47;;;;;;;4.43;3.40;;;8.60;99.90;;;;;;5058203;28;20044;-86
2023/04/12 09:19:29;;;;;;;5.20;3.83;;;8.60;99.90;;;;;;5073720;28;20127;-83
2023/04/12 09:21:56;;;;;;;7.90;3.80;;;8.60;99.90;;;;;;5073941;28;20119;-85
2023/04/12 09:24:24;;;;;;;4.75;3.75;;;8.40;99.90;;;;;;5073758;28;20106;-82
2023/04/12 09:27:04;;;;;;;5.97;3.58;;;8.70;99.90;;;;;;5072691;28;20041;-76
2023/04/12 09:29:31;;;;;;;6.10;3.50;;;8.70;99.90;;;;;;5054775;28;20051;-80
2023/04/12 09:32:01;;;;;;;8.15;3.10;;;8.80;99.90;;;;;;5071985;28;20087;-75
2023/04/12 09:34:28;;;;;;;5.43;2.90;;;8.90;99.90;;;;;;5053895;28;20052;-71
2023/04/12 09:36:54;;;;;;;7.72;4.32;;;9.00;99.90;;;;;;5071891;28;20052;-72
2023/04/12 09:39:29;;;;;;;7.78;4.60;;;9.50;99.90;;;;;;5072430;28;20151;-83
2023/04/12 09:42:06;;;;;;;7.13;3.60;;;9.20;99.90;;;;;;5066743;28;20048;-85
2023/04/12 09:44:33;;;;;;;6.22;3.97;;;9.20;99.90;;;;;;5048872;28;20048;-74
2023/04/12 09:47:01;;;;;;;5.80;4.35;;;9.30;99.90;;;;;;5055001;28;20163;-73
2023/04/12 09:49:43;;;;;;;6.70;4.18;;;9.40;99.90;;;;;;5071616;28;20551;-74
2023/04/12 09:52:13;;;;;;;7.85;4.18;;;9.50;99.90;;;;;;5064691;28;20036;-79
2023/04/12 09:54:49;;;;;;;9.35;4.53;;;9.60;99.90;;;;;;5071938;28;20611;-76
2023/04/12 09:57:20;;;;;;;6.63;4.40;;;9.80;99.90;;;;;;5052877;28;20126;-72
2023/04/12 09:59:50;;;;;;;7.78;4.28;;;10.10;99.90;;;;;;5037443;28;20049;-74
2023/04/12 10:02:18;;;;;;;7.30;4.00;;;10.30;99.90;;;;;;5071012;28;20052;-76
2023/04/12 10:04:46;;;;;;;8.23;4.47;;;10.40;99.90;;;;;;5072383;28;20461;-77
2023/04/12 10:07:12;;;;;;;11.80;4.60;;;10.40;99.90;;;;;;5072021;28;20061;-72
2023/04/12 10:09:39;;;;;;;9.18;4.00;;;10.80;99.90;;;;;;5072113;28;20052;-81
2023/04/12 10:12:06;;;;;;;11.35;4.45;;;10.60;99.90;;;;;;5072103;28;20044;-72
2023/04/12 10:14:32;;;;;;;9.43;4.40;;;10.60;99.90;;;;;;5072014;28;20041;-71
2023/04/12 10:17:00;;;;;;;9.23;3.70;;;10.80;99.90;;;;;;5071669;28;20051;-80
2023/04/12 10:19:28;;;;;;;9.43;3.58;;;11.40;99.90;;;;;;5071456;28;20051;-72
2023/04/12 10:21:55;;;;;;;11.30;3.78;;;11.20;99.90;;;;;;5065669;28;20086;-85
2023/04/12 10:24:25;;;;;;;13.80;4.30;;;11.30;99.90;;;;;;5070488;28;20053;-73
2023/04/12 10:26:54;;;;;;;9.35;3.40;;;11.30;99.90;;;;;;5050534;28;20055;-77
2023/04/12 10:29:32;;;;;;;8.95;3.20;;;11.20;99.90;;;;;;5071216;28;20674;-72
2023/04/12 10:32:23;;;;;;;12.48;3.65;;;11.30;99.90;;;;;;5069298;28;20046;-88
2023/04/12 10:34:59;;;;;;;14.85;4.10;;;11.50;99.90;;;;;;5070072;28;20036;-74
2023/04/12 10:38:00;;;;;;;11.80;3.05;;;11.30;99.90;;;;;;5051487;28;20041;-72
2023/04/12 10:40:30;;;;;;;10.75;3.67;;;11.70;99.90;;;;;;5051160;28;20053;-73
2023/04/12 10:43:17;;;;;;;11.68;3.42;;;11.80;99.90;;;;;;5038765;28;20090;-73
2023/04/12 10:45:44;;;;;;;13.35;2.55;;;12.00;99.90;;;;;;5052846;28;20087;-72
2023/04/12 10:48:36;;;;;;;13.23;3.08;;;12.10;99.90;;;;;;5071002;28;20055;-73
2023/04/12 10:51:25;;;;;;;14.20;3.03;;;12.20;99.90;;;;;;5070785;28;20380;-73
2023/04/12 10:54:16;;;;;;;13.93;3.70;;;12.10;99.90;;;;;;5070349;28;20043;-81
2023/04/12 10:56:43;;;;;;;11.10;2.63;;;12.10;99.90;;;;;;5061939;28;20051;-73
2023/04/12 10:59:10;;;;;;;15.23;3.13;;;12.20;99.90;;;;;;5053042;28;20060;-71
2023/04/12 11:01:37;;;;;;;12.15;2.13;;;12.30;99.90;;;;;;5068427;28;20047;-71
2023/04/12 11:04:08;;;;;;;15.00;3.03;;;12.40;99.90;;;;;;5066549;28;20048;-72
2023/04/12 11:06:49;;;;;;;9.80;2.20;;;12.40;99.90;;;;;;5070387;28;20098;-87
2023/04/12 11:09:36;;;;;;;19.58;3.05;;;12.30;99.90;;;;;;5070789;28;20499;-73
2023/04/12 11:12:04;;;;;;;15.20;2.20;;;12.20;99.90;;;;;;5052559;28;20044;-72
2023/04/12 11:14:44;;;;;;;10.13;2.10;;;12.20;99.90;;;;;;5071305;28;20076;-73
2023/04/12 11:17:30;;;;;;;15.65;2.95;;;12.30;99.90;;;;;;5074427;28;20074;-78
2023/04/12 11:19:59;;;;;;;19.23;2.47;;;12.50;99.90;;;;;;5074306;28;20103;-72
2023/04/12 11:22:27;;;;;;;9.82;2.58;;;12.50;99.90;;;;;;5074161;28;20048;-74
2023/04/12 11:24:56;;;;;;;15.85;2.30;;;12.60;99.90;;;;;;5055654;28;20052;-72
2023/04/12 11:27:24;;;;;;;13.82;2.13;;;12.50;99.90;;;;;;5055883;28;20059;-73
2023/04/12 11:29:53;;;;;;;15.77;2.60;;;12.60;99.90;;;;;;5073907;28;20036;-72
2023/04/12 11:32:21;;;;;;;12.98;2.30;;;12.60;99.90;;;;;;5074095;28;20059;-72
2023/04/12 11:34:46;;;;;;;14.98;2.42;;;12.60;99.90;;;;;;5073080;28;20411;-72
2023/04/12 11:37:12;;;;;;;12.73;2.20;;;12.60;99.90;;;;;;5053433;28;20057;-71
2023/04/12 11:39:40;;;;;;;25.80;2.88;;;12.60;99.90;;;;;;5073617;28;20123;-72
2023/04/12 11:42:11;;;;;;;12.48;2.00;;;12.70;99.90;;;;;;5073695;28;20395;-73
2023/04/12 11:44:40;;;;;;;11.30;2.17;;;12.70;99.90;;;;;;5073709;28;20040;-72
2023/04/12 11:47:11;;;;;;;15.82;2.42;;;12.60;99.90;;;;;;5073858;28;20044;-71
2023/04/12 11:49:49;;;;;;;12.07;2.58;;;12.60;99.90;;;;;;5072311;28;20094;-72
2023/04/12 11:52:16;;;;;;;14.63;2.42;;;12.50;99.90;;;;;;5062741;28;20128;-72
2023/04/12 11:54:43;;;;;;;16.75;3.03;;;12.50;99.90;;;;;;5055963;28;20439;-72
2023/04/12 11:57:11;;;;;;;19.00;2.72;;;12.50;99.90;;;;;;5073889;28;20045;-72
2023/04/12 11:59:37;;;;;;;18.02;2.70;;;12.50;99.90;;;;;;5073264;28;20053;-72
2023/04/12 12:02:04;;;;;;;16.33;2.58;;;12.50;99.90;;;;;;5072379;28;20048;-75
2023/04/12 12:04:31;;;;;;;13.45;2.65;;;12.50;99.90;;;;;;5064639;28;20558;-73
2023/04/12 12:06:57;;;;;;;16.90;2.25;;;12.30;99.90;;;;;;5072389;28;20617;-72
2023/04/12 12:09:24;;;;;;;15.77;3.00;;;12.20;99.90;;;;;;5072808;28;20052;-72
2023/04/12 12:11:51;;;;;;;19.33;2.63;;;12.10;99.90;;;;;;5072812;28;20044;-71
2023/04/12 12:14:21;;;;;;;21.63;3.65;;;12.00;99.90;;;;;;5073179;28;20053;-88
2023/04/12 12:16:57;;;;;;;16.13;2.90;;;12.00;99.90;;;;;;5072363;28;20536;-81
2023/04/12 12:19:45;;;;;;;16.85;3.10;;;12.00;99.90;;;;;;5074344;28;20061;-82
2023/04/12 12:22:21;;;;;;;16.33;3.45;;;12.00;99.90;;;;;;5074841;28;20506;-88
2023/04/12 12:24:56;;;;;;;16.70;2.60;;;12.00;99.90;;;;;;5074369;28;20499;-93
2023/04/12 12:27:47;;;;;;;13.63;2.33;;;12.10;99.90;;;;;;5075106;28;20843;-86
2023/04/12 12:30:16;;;;;;;10.07;2.58;;;12.30;99.90;;;;;;5057160;28;20095;-78
2023/04/12 12:32:42;;;;;;;16.70;2.67;;;12.30;99.90;;;;;;5055371;28;20488;-72
2023/04/12 12:35:09;;;;;;;17.63;2.50;;;12.30;99.90;;;;;;5072163;28;20055;-78
2023/04/12 12:37:35;;;;;;;13.20;2.35;;;12.40;99.90;;;;;;5054683;28;20426;-75
2023/04/12 12:40:15;;;;;;;15.93;2.00;;;12.60;99.90;;;;;;5072813;28;20104;-72
2023/04/12 12:42:51;;;;;;;12.48;2.53;;;12.80;99.90;;;;;;5072444;28;20044;-75
2023/04/12 12:45:18;;;;;;;8.38;1.70;;;12.80;99.90;;;;;;5072180;28;20049;-74
2023/04/12 12:47:50;;;;;;;15.13;1.92;;;12.70;99.90;;;;;;5072702;28;20127;-73
2023/04/12 12:50:17;;;;;;;11.52;1.50;;;12.70;99.90;;;;;;5072562;28;20049;-73
2023/04/12 12:52:45;;;;;;;10.15;1.88;;;12.60;99.90;;;;;;5072646;28;20686;-74
2023/04/12 12:55:14;;;;;;;14.32;2.50;;;12.50;99.90;;;;;;5071275;28;20106;-74
2023/04/12 12:57:42;;;;;;;12.88;2.47;;;12.50;99.90;;;;;;5072230;28;20048;-72